sensor_id;sensor_type;location;lat;lon;timestamp;P1;durP1;ratioP1;P2;durP2;ratioP2
53245;SDS011;39569;51.090;-1.786;2022-07-29T00:01:35;13.73;;;6.00;;
53245;SDS011;39569;51.090;-1.786;2022-07-29T00:04:02;9.65;;;5.95;;
53245;SDS011;39569;51.090;-1.786;2022-07-29T00:06:28;13.52;;;6.70;;
53245;SDS011;39569;51.090;-1.786;2022-07-29T00:08:55;9.23;;;7.70;;
53245;SDS011;39569;51.090;-1.786;2022-07-29T00:11:22;6.43;;;5.82;;
53245;SDS011;39569;51.090;-1.786;2022-07-29T00:13:48;9.35;;;6.82;;
53245;SDS011;39569;51.090;-1.786;2022-07-29T00:16:15;8.77;;;6.90;;
53245;SDS011;39569;51.090;-1.786;2022-07-29T00:18:43;8.32;;;6.40;;
53245;SDS011;39569;51.090;-1.786;2022-07-29T00:21:10;7.70;;;6.25;;
53245;SDS011;39569;51.090;-1.786;2022-07-29T00:23:37;12.60;;;6.55;;
53245;SDS011;39569;51.090;-1.786;2022-07-29T00:26:04;30.25;;;7.07;;
53245;SDS011;39569;51.090;-1.786;2022-07-29T00:28:30;9.10;;;6.30;;
53245;SDS011;39569;51.090;-1.786;2022-07-29T00:30:57;15.48;;;6.13;;
53245;SDS011;39569;51.090;-1.786;2022-07-29T00:33:24;23.88;;;7.10;;
53245;SDS011;39569;51.090;-1.786;2022-07-29T00:35:52;6.65;;;5.88;;
53245;SDS011;39569;51.090;-1.786;2022-07-29T00:38:18;8.27;;;6.07;;
53245;SDS011;39569;51.090;-1.786;2022-07-29T00:40:46;24.25;;;6.22;;
53245;SDS011;39569;51.090;-1.786;2022-07-29T00:43:13;7.70;;;6.95;;
53245;SDS011;39569;51.090;-1.786;2022-07-29T00:45:40;13.20;;;6.82;;
53245;SDS011;39569;51.090;-1.786;2022-07-29T00:48:07;10.70;;;6.85;;
53245;SDS011;39569;51.090;-1.786;2022-07-29T00:50:34;14.43;;;7.13;;
53245;SDS011;39569;51.090;-1.786;2022-07-29T00:53:04;7.82;;;7.10;;
53245;SDS011;39569;51.090;-1.786;2022-07-29T00:55:33;7.38;;;6.65;;
53245;SDS011;39569;51.090;-1.786;2022-07-29T00:58:00;14.20;;;5.80;;
53245;SDS011;39569;51.090;-1.786;2022-07-29T01:00:27;7.40;;;6.80;;
53245;SDS011;39569;51.090;-1.786;2022-07-29T01:02:54;9.23;;;6.95;;
53245;SDS011;39569;51.090;-1.786;2022-07-29T01:05:22;9.93;;;6.85;;
53245;SDS011;39569;51.090;-1.786;2022-07-29T01:07:51;10.65;;;5.80;;
53245;SDS011;39569;51.090;-1.786;2022-07-29T01:10:21;14.52;;;7.28;;
53245;SDS011;39569;51.090;-1.786;2022-07-29T01:12:51;7.35;;;5.90;;
53245;SDS011;39569;51.090;-1.786;2022-07-29T01:15:19;11.27;;;6.63;;
53245;SDS011;39569;51.090;-1.786;2022-07-29T01:17:49;10.48;;;6.47;;
53245;SDS011;39569;51.090;-1.786;2022-07-29T01:20:22;10.60;;;6.40;;
53245;SDS011;39569;51.090;-1.786;2022-07-29T01:23:01;9.00;;;5.90;;
53245;SDS011;39569;51.090;-1.786;2022-07-29T01:25:45;11.02;;;6.60;;
53245;SDS011;39569;51.090;-1.786;2022-07-29T01:28:36;12.27;;;6.90;;
53245;SDS011;39569;51.090;-1.786;2022-07-29T01:31:11;10.30;;;5.60;;
53245;SDS011;39569;51.090;-1.786;2022-07-29T01:33:43;12.20;;;6.55;;
53245;SDS011;39569;51.090;-1.786;2022-07-29T01:36:16;24.88;;;6.80;;
53245;SDS011;39569;51.090;-1.786;2022-07-29T01:38:48;9.48;;;6.05;;
53245;SDS011;39569;51.090;-1.786;2022-07-29T01:41:20;10.02;;;7.07;;
53245;SDS011;39569;51.090;-1.786;2022-07-29T01:43:51;6.93;;;6.20;;
53245;SDS011;39569;51.090;-1.786;2022-07-29T01:46:24;12.88;;;6.32;;
53245;SDS011;39569;51.090;-1.786;2022-07-29T01:49:00;9.45;;;5.47;;
53245;SDS011;39569;51.090;-1.786;2022-07-29T01:51:33;7.53;;;6.40;;
53245;SDS011;39569;51.090;-1.786;2022-07-29T01:54:07;13.70;;;6.53;;
53245;SDS011;39569;51.090;-1.786;2022-07-29T01:56:39;6.97;;;5.57;;
53245;SDS011;39569;51.090;-1.786;2022-07-29T01:59:10;6.95;;;5.32;;
53245;SDS011;39569;51.090;-1.786;2022-07-29T02:01:37;9.43;;;5.80;;
53245;SDS011;39569;51.090;-1.786;2022-07-29T02:04:06;8.95;;;5.75;;
53245;SDS011;39569;51.090;-1.786;2022-07-29T02:06:36;13.50;;;6.18;;
53245;SDS011;39569;51.090;-1.786;2022-07-29T02:09:06;6.10;;;4.90;;
53245;SDS011;39569;51.090;-1.786;2022-07-29T02:11:34;7.07;;;5.78;;
53245;SDS011;39569;51.090;-1.786;2022-07-29T02:14:04;12.57;;;5.65;;
53245;SDS011;39569;51.090;-1.786;2022-07-29T02:16:33;11.02;;;4.53;;
53245;SDS011;39569;51.090;-1.786;2022-07-29T02:19:02;14.88;;;6.05;;
53245;SDS011;39569;51.090;-1.786;2022-07-29T02:21:31;16.65;;;6.30;;
53245;SDS011;39569;51.090;-1.786;2022-07-29T02:24:00;17.52;;;6.80;;
53245;SDS011;39569;51.090;-1.786;2022-07-29T02:26:28;10.25;;;6.05;;
53245;SDS011;39569;51.090;-1.786;2022-07-29T02:28:58;11.40;;;6.60;;
53245;SDS011;39569;51.090;-1.786;2022-07-29T02:31:26;10.70;;;6.75;;
53245;SDS011;39569;51.090;-1.786;2022-07-29T02:33:59;14.48;;;6.55;;
53245;SDS011;39569;51.090;-1.786;2022-07-29T02:36:28;6.22;;;5.53;;
53245;SDS011;39569;51.090;-1.786;2022-07-29T02:38:57;8.18;;;6.22;;
53245;SDS011;39569;51.090;-1.786;2022-07-29T02:41:27;11.35;;;6.15;;
53245;SDS011;39569;51.090;-1.786;2022-07-29T02:43:55;7.47;;;5.60;;
53245;SDS011;39569;51.090;-1.786;2022-07-29T02:46:26;12.00;;;5.78;;
53245;SDS011;39569;51.090;-1.786;2022-07-29T02:48:58;7.72;;;5.88;;
53245;SDS011;39569;51.090;-1.786;2022-07-29T02:51:32;13.43;;;7.07;;
53245;SDS011;39569;51.090;-1.786;2022-07-29T02:54:06;5.70;;;5.15;;
53245;SDS011;39569;51.090;-1.786;2022-07-29T02:56:35;10.13;;;6.53;;
53245;SDS011;39569;51.090;-1.786;2022-07-29T02:59:06;9.63;;;6.15;;
53245;SDS011;39569;51.090;-1.786;2022-07-29T03:01:36;9.52;;;5.55;;
53245;SDS011;39569;51.090;-1.786;2022-07-29T03:04:09;5.65;;;5.00;;
53245;SDS011;39569;51.090;-1.786;2022-07-29T03:06:39;9.60;;;6.78;;
53245;SDS011;39569;51.090;-1.786;2022-07-29T03:09:07;12.60;;;6.53;;
53245;SDS011;39569;51.090;-1.786;2022-07-29T03:11:34;7.70;;;5.13;;
53245;SDS011;39569;51.090;-1.786;2022-07-29T03:14:02;11.95;;;5.90;;
53245;SDS011;39569;51.090;-1.786;2022-07-29T03:16:31;13.82;;;5.90;;
53245;SDS011;39569;51.090;-1.786;2022-07-29T03:19:01;8.80;;;4.87;;
53245;SDS011;39569;51.090;-1.786;2022-07-29T03:21:30;7.25;;;4.60;;
53245;SDS011;39569;51.090;-1.786;2022-07-29T03:23:57;5.55;;;5.00;;
53245;SDS011;39569;51.090;-1.786;2022-07-29T03:26:24;9.63;;;4.75;;
53245;SDS011;39569;51.090;-1.786;2022-07-29T03:28:51;10.40;;;6.03;;
53245;SDS011;39569;51.090;-1.786;2022-07-29T03:31:18;5.93;;;4.65;;
53245;SDS011;39569;51.090;-1.786;2022-07-29T03:33:45;19.35;;;7.32;;
53245;SDS011;39569;51.090;-1.786;2022-07-29T03:36:12;12.45;;;5.68;;
53245;SDS011;39569;51.090;-1.786;2022-07-29T03:42:02;6.60;;;5.82;;
53245;SDS011;39569;51.090;-1.786;2022-07-29T03:44:32;11.43;;;6.78;;
53245;SDS011;39569;51.090;-1.786;2022-07-29T03:46:59;8.15;;;5.60;;
53245;SDS011;39569;51.090;-1.786;2022-07-29T03:49:27;7.13;;;5.22;;
53245;SDS011;39569;51.090;-1.786;2022-07-29T03:51:57;10.40;;;5.85;;
53245;SDS011;39569;51.090;-1.786;2022-07-29T03:54:24;9.93;;;6.15;;
53245;SDS011;39569;51.090;-1.786;2022-07-29T03:56:50;10.43;;;5.72;;
53245;SDS011;39569;51.090;-1.786;2022-07-29T03:59:21;18.05;;;5.45;;
53245;SDS011;39569;51.090;-1.786;2022-07-29T04:01:49;9.93;;;6.00;;
53245;SDS011;39569;51.090;-1.786;2022-07-29T04:04:16;6.03;;;5.43;;
53245;SDS011;39569;51.090;-1.786;2022-07-29T04:06:44;7.25;;;4.78;;
53245;SDS011;39569;51.090;-1.786;2022-07-29T04:09:12;7.25;;;4.28;;
53245;SDS011;39569;51.090;-1.786;2022-07-29T04:11:39;8.13;;;4.78;;
53245;SDS011;39569;51.090;-1.786;2022-07-29T04:14:07;10.05;;;5.38;;
53245;SDS011;39569;51.090;-1.786;2022-07-29T04:16:35;11.30;;;5.50;;
53245;SDS011;39569;51.090;-1.786;2022-07-29T04:19:02;13.93;;;5.47;;
53245;SDS011;39569;51.090;-1.786;2022-07-29T04:21:29;9.38;;;4.95;;
53245;SDS011;39569;51.090;-1.786;2022-07-29T04:23:56;8.70;;;4.15;;
53245;SDS011;39569;51.090;-1.786;2022-07-29T04:26:23;11.48;;;5.15;;
53245;SDS011;39569;51.090;-1.786;2022-07-29T04:28:49;5.47;;;4.25;;
53245;SDS011;39569;51.090;-1.786;2022-07-29T04:31:16;9.38;;;5.57;;
53245;SDS011;39569;51.090;-1.786;2022-07-29T04:33:44;7.45;;;4.43;;
53245;SDS011;39569;51.090;-1.786;2022-07-29T04:36:11;5.18;;;4.03;;
53245;SDS011;39569;51.090;-1.786;2022-07-29T04:38:38;9.27;;;5.28;;
53245;SDS011;39569;51.090;-1.786;2022-07-29T04:41:05;6.03;;;4.40;;
53245;SDS011;39569;51.090;-1.786;2022-07-29T04:43:33;6.18;;;5.10;;
53245;SDS011;39569;51.090;-1.786;2022-07-29T04:46:00;9.35;;;5.13;;
53245;SDS011;39569;51.090;-1.786;2022-07-29T04:48:27;6.65;;;5.25;;
53245;SDS011;39569;51.090;-1.786;2022-07-29T04:50:55;7.32;;;4.72;;
53245;SDS011;39569;51.090;-1.786;2022-07-29T04:53:22;8.25;;;5.55;;
53245;SDS011;39569;51.090;-1.786;2022-07-29T04:55:49;13.18;;;5.45;;
53245;SDS011;39569;51.090;-1.786;2022-07-29T04:58:16;12.23;;;5.45;;
53245;SDS011;39569;51.090;-1.786;2022-07-29T05:00:43;12.63;;;5.28;;
53245;SDS011;39569;51.090;-1.786;2022-07-29T05:03:10;11.50;;;5.00;;
53245;SDS011;39569;51.090;-1.786;2022-07-29T05:05:36;4.40;;;4.03;;
53245;SDS011;39569;51.090;-1.786;2022-07-29T05:08:05;6.75;;;4.65;;
53245;SDS011;39569;51.090;-1.786;2022-07-29T05:10:31;13.25;;;4.10;;
53245;SDS011;39569;51.090;-1.786;2022-07-29T05:13:00;10.43;;;3.97;;
53245;SDS011;39569;51.090;-1.786;2022-07-29T05:15:27;5.35;;;3.15;;
53245;SDS011;39569;51.090;-1.786;2022-07-29T05:17:54;5.82;;;4.10;;
53245;SDS011;39569;51.090;-1.786;2022-07-29T05:20:20;10.10;;;3.85;;
53245;SDS011;39569;51.090;-1.786;2022-07-29T05:22:51;5.10;;;4.45;;
53245;SDS011;39569;51.090;-1.786;2022-07-29T05:25:19;6.15;;;4.53;;
53245;SDS011;39569;51.090;-1.786;2022-07-29T05:27:46;5.68;;;4.18;;
53245;SDS011;39569;51.090;-1.786;2022-07-29T05:30:13;9.35;;;5.25;;
53245;SDS011;39569;51.090;-1.786;2022-07-29T05:32:39;6.13;;;4.70;;
53245;SDS011;39569;51.090;-1.786;2022-07-29T05:35:06;5.15;;;4.05;;
53245;SDS011;39569;51.090;-1.786;2022-07-29T05:37:34;7.68;;;4.43;;
53245;SDS011;39569;51.090;-1.786;2022-07-29T05:40:00;7.60;;;4.65;;
53245;SDS011;39569;51.090;-1.786;2022-07-29T05:42:29;9.98;;;4.65;;
53245;SDS011;39569;51.090;-1.786;2022-07-29T05:44:56;5.45;;;4.80;;
53245;SDS011;39569;51.090;-1.786;2022-07-29T05:47:22;5.73;;;4.13;;
53245;SDS011;39569;51.090;-1.786;2022-07-29T05:49:49;8.03;;;4.77;;
53245;SDS011;39569;51.090;-1.786;2022-07-29T05:52:16;4.18;;;3.70;;
53245;SDS011;39569;51.090;-1.786;2022-07-29T05:54:43;13.65;;;3.80;;
53245;SDS011;39569;51.090;-1.786;2022-07-29T05:57:14;3.75;;;2.78;;
53245;SDS011;39569;51.090;-1.786;2022-07-29T05:59:43;6.90;;;3.80;;
53245;SDS011;39569;51.090;-1.786;2022-07-29T06:02:10;5.75;;;3.92;;
53245;SDS011;39569;51.090;-1.786;2022-07-29T06:04:36;19.60;;;3.80;;
53245;SDS011;39569;51.090;-1.786;2022-07-29T06:07:03;12.35;;;4.18;;
53245;SDS011;39569;51.090;-1.786;2022-07-29T06:09:30;8.68;;;3.60;;
53245;SDS011;39569;51.090;-1.786;2022-07-29T06:11:57;3.95;;;3.65;;
53245;SDS011;39569;51.090;-1.786;2022-07-29T06:14:23;5.53;;;3.50;;
53245;SDS011;39569;51.090;-1.786;2022-07-29T06:16:52;8.57;;;3.83;;
53245;SDS011;39569;51.090;-1.786;2022-07-29T06:19:19;5.53;;;3.30;;
53245;SDS011;39569;51.090;-1.786;2022-07-29T06:21:46;4.88;;;3.30;;
53245;SDS011;39569;51.090;-1.786;2022-07-29T06:24:13;7.53;;;3.13;;
53245;SDS011;39569;51.090;-1.786;2022-07-29T06:26:41;6.68;;;3.00;;
53245;SDS011;39569;51.090;-1.786;2022-07-29T06:29:09;11.95;;;4.68;;
53245;SDS011;39569;51.090;-1.786;2022-07-29T06:31:36;7.60;;;3.75;;
53245;SDS011;39569;51.090;-1.786;2022-07-29T06:34:05;8.90;;;3.88;;
53245;SDS011;39569;51.090;-1.786;2022-07-29T06:36:33;6.93;;;2.47;;
53245;SDS011;39569;51.090;-1.786;2022-07-29T06:39:03;7.50;;;3.22;;
53245;SDS011;39569;51.090;-1.786;2022-07-29T06:41:30;3.90;;;2.35;;
53245;SDS011;39569;51.090;-1.786;2022-07-29T06:43:57;10.85;;;3.35;;
53245;SDS011;39569;51.090;-1.786;2022-07-29T06:46:24;4.38;;;3.10;;
53245;SDS011;39569;51.090;-1.786;2022-07-29T06:48:51;9.00;;;3.28;;
53245;SDS011;39569;51.090;-1.786;2022-07-29T06:51:20;26.05;;;2.85;;
53245;SDS011;39569;51.090;-1.786;2022-07-29T06:53:47;7.72;;;2.72;;
53245;SDS011;39569;51.090;-1.786;2022-07-29T06:56:14;11.87;;;4.00;;
53245;SDS011;39569;51.090;-1.786;2022-07-29T06:58:40;6.15;;;4.30;;
53245;SDS011;39569;51.090;-1.786;2022-07-29T07:01:07;9.65;;;3.67;;
53245;SDS011;39569;51.090;-1.786;2022-07-29T07:03:34;6.10;;;2.97;;
53245;SDS011;39569;51.090;-1.786;2022-07-29T07:06:00;8.10;;;3.13;;
53245;SDS011;39569;51.090;-1.786;2022-07-29T07:08:29;7.80;;;2.75;;
53245;SDS011;39569;51.090;-1.786;2022-07-29T07:10:56;9.02;;;3.58;;
53245;SDS011;39569;51.090;-1.786;2022-07-29T07:13:23;7.03;;;2.55;;
53245;SDS011;39569;51.090;-1.786;2022-07-29T07:15:50;7.88;;;3.65;;
53245;SDS011;39569;51.090;-1.786;2022-07-29T07:18:17;9.48;;;4.25;;
53245;SDS011;39569;51.090;-1.786;2022-07-29T07:20:44;7.53;;;3.05;;
53245;SDS011;39569;51.090;-1.786;2022-07-29T07:23:12;2.78;;;2.58;;
53245;SDS011;39569;51.090;-1.786;2022-07-29T07:25:40;5.80;;;2.72;;
53245;SDS011;39569;51.090;-1.786;2022-07-29T07:28:08;4.43;;;3.20;;
53245;SDS011;39569;51.090;-1.786;2022-07-29T07:30:34;8.02;;;3.70;;
53245;SDS011;39569;51.090;-1.786;2022-07-29T07:33:02;4.18;;;3.15;;
53245;SDS011;39569;51.090;-1.786;2022-07-29T07:35:29;8.55;;;4.57;;
53245;SDS011;39569;51.090;-1.786;2022-07-29T07:37:57;5.85;;;3.78;;
53245;SDS011;39569;51.090;-1.786;2022-07-29T07:40:24;3.28;;;2.60;;
53245;SDS011;39569;51.090;-1.786;2022-07-29T07:42:52;5.40;;;3.38;;
53245;SDS011;39569;51.090;-1.786;2022-07-29T07:45:19;5.95;;;4.15;;
53245;SDS011;39569;51.090;-1.786;2022-07-29T07:47:46;4.45;;;3.10;;
53245;SDS011;39569;51.090;-1.786;2022-07-29T07:50:13;3.80;;;2.72;;
53245;SDS011;39569;51.090;-1.786;2022-07-29T07:52:46;4.97;;;3.38;;
53245;SDS011;39569;51.090;-1.786;2022-07-29T07:55:14;5.03;;;3.28;;
53245;SDS011;39569;51.090;-1.786;2022-07-29T07:57:41;5.32;;;3.38;;
53245;SDS011;39569;51.090;-1.786;2022-07-29T08:00:10;9.33;;;3.03;;
53245;SDS011;39569;51.090;-1.786;2022-07-29T08:02:38;16.73;;;4.88;;
53245;SDS011;39569;51.090;-1.786;2022-07-29T08:05:05;9.48;;;2.60;;
53245;SDS011;39569;51.090;-1.786;2022-07-29T08:07:32;6.05;;;3.78;;
53245;SDS011;39569;51.090;-1.786;2022-07-29T08:09:59;8.90;;;2.83;;
53245;SDS011;39569;51.090;-1.786;2022-07-29T08:12:26;8.85;;;3.22;;
53245;SDS011;39569;51.090;-1.786;2022-07-29T08:14:53;5.88;;;3.42;;
53245;SDS011;39569;51.090;-1.786;2022-07-29T08:17:21;3.83;;;3.28;;
53245;SDS011;39569;51.090;-1.786;2022-07-29T08:19:48;4.85;;;3.38;;
53245;SDS011;39569;51.090;-1.786;2022-07-29T08:22:15;3.15;;;2.92;;
53245;SDS011;39569;51.090;-1.786;2022-07-29T08:24:42;5.15;;;3.10;;
53245;SDS011;39569;51.090;-1.786;2022-07-29T08:27:17;13.20;;;4.68;;
53245;SDS011;39569;51.090;-1.786;2022-07-29T08:29:44;5.47;;;3.55;;
53245;SDS011;39569;51.090;-1.786;2022-07-29T08:32:11;5.85;;;2.40;;
53245;SDS011;39569;51.090;-1.786;2022-07-29T08:34:39;2.65;;;2.42;;
53245;SDS011;39569;51.090;-1.786;2022-07-29T08:37:06;3.65;;;3.15;;
53245;SDS011;39569;51.090;-1.786;2022-07-29T08:39:33;5.88;;;2.58;;
53245;SDS011;39569;51.090;-1.786;2022-07-29T08:41:59;3.67;;;3.08;;
53245;SDS011;39569;51.090;-1.786;2022-07-29T08:44:26;3.78;;;2.83;;
53245;SDS011;39569;51.090;-1.786;2022-07-29T08:46:53;5.90;;;2.42;;
53245;SDS011;39569;51.090;-1.786;2022-07-29T08:49:20;2.42;;;1.67;;
53245;SDS011;39569;51.090;-1.786;2022-07-29T08:51:48;1.90;;;1.80;;
53245;SDS011;39569;51.090;-1.786;2022-07-29T08:54:16;10.52;;;2.35;;
53245;SDS011;39569;51.090;-1.786;2022-07-29T08:56:43;2.30;;;1.73;;
53245;SDS011;39569;51.090;-1.786;2022-07-29T08:59:14;2.50;;;1.92;;
53245;SDS011;39569;51.090;-1.786;2022-07-29T09:01:42;2.50;;;1.95;;
53245;SDS011;39569;51.090;-1.786;2022-07-29T09:04:10;2.95;;;2.08;;
53245;SDS011;39569;51.090;-1.786;2022-07-29T09:06:39;3.05;;;2.13;;
53245;SDS011;39569;51.090;-1.786;2022-07-29T09:09:11;2.00;;;1.77;;
53245;SDS011;39569;51.090;-1.786;2022-07-29T09:11:39;2.35;;;1.85;;
53245;SDS011;39569;51.090;-1.786;2022-07-29T09:14:07;1.70;;;1.60;;
53245;SDS011;39569;51.090;-1.786;2022-07-29T09:16:50;4.50;;;1.93;;
53245;SDS011;39569;51.090;-1.786;2022-07-29T09:19:22;1.42;;;1.42;;
53245;SDS011;39569;51.090;-1.786;2022-07-29T09:21:53;11.55;;;2.10;;
53245;SDS011;39569;51.090;-1.786;2022-07-29T09:24:26;8.48;;;1.85;;
53245;SDS011;39569;51.090;-1.786;2022-07-29T09:27:03;3.42;;;2.15;;
53245;SDS011;39569;51.090;-1.786;2022-07-29T09:29:35;2.38;;;1.92;;
53245;SDS011;39569;51.090;-1.786;2022-07-29T09:32:05;2.55;;;2.35;;
53245;SDS011;39569;51.090;-1.786;2022-07-29T09:34:34;6.07;;;3.33;;
53245;SDS011;39569;51.090;-1.786;2022-07-29T09:37:01;5.82;;;1.73;;
53245;SDS011;39569;51.090;-1.786;2022-07-29T09:39:30;1.70;;;1.60;;
53245;SDS011;39569;51.090;-1.786;2022-07-29T09:41:59;1.93;;;1.80;;
53245;SDS011;39569;51.090;-1.786;2022-07-29T09:44:27;2.75;;;1.70;;
53245;SDS011;39569;51.090;-1.786;2022-07-29T09:47:08;5.75;;;2.55;;
53245;SDS011;39569;51.090;-1.786;2022-07-29T09:49:35;4.57;;;1.90;;
53245;SDS011;39569;51.090;-1.786;2022-07-29T09:52:16;3.08;;;2.78;;
53245;SDS011;39569;51.090;-1.786;2022-07-29T09:54:44;4.13;;;2.25;;
53245;SDS011;39569;51.090;-1.786;2022-07-29T09:57:21;3.65;;;2.30;;
53245;SDS011;39569;51.090;-1.786;2022-07-29T09:59:55;1.65;;;1.27;;
53245;SDS011;39569;51.090;-1.786;2022-07-29T10:02:23;2.80;;;1.42;;
53245;SDS011;39569;51.090;-1.786;2022-07-29T10:04:54;4.30;;;2.30;;
53245;SDS011;39569;51.090;-1.786;2022-07-29T10:07:21;2.88;;;1.70;;
53245;SDS011;39569;51.090;-1.786;2022-07-29T10:09:56;1.15;;;1.15;;
53245;SDS011;39569;51.090;-1.786;2022-07-29T10:12:24;2.53;;;2.33;;
53245;SDS011;39569;51.090;-1.786;2022-07-29T10:14:51;3.03;;;1.40;;
53245;SDS011;39569;51.090;-1.786;2022-07-29T10:17:18;4.85;;;1.52;;
53245;SDS011;39569;51.090;-1.786;2022-07-29T10:19:45;7.18;;;2.30;;
53245;SDS011;39569;51.090;-1.786;2022-07-29T10:22:13;1.48;;;1.38;;
53245;SDS011;39569;51.090;-1.786;2022-07-29T10:24:40;1.88;;;1.40;;
53245;SDS011;39569;51.090;-1.786;2022-07-29T10:27:08;2.67;;;1.60;;
53245;SDS011;39569;51.090;-1.786;2022-07-29T10:29:35;8.80;;;1.50;;
53245;SDS011;39569;51.090;-1.786;2022-07-29T10:35:04;3.17;;;1.60;;
53245;SDS011;39569;51.090;-1.786;2022-07-29T10:37:42;2.78;;;1.70;;
53245;SDS011;39569;51.090;-1.786;2022-07-29T10:40:28;3.45;;;1.48;;
53245;SDS011;39569;51.090;-1.786;2022-07-29T10:43:22;4.78;;;2.13;;
53245;SDS011;39569;51.090;-1.786;2022-07-29T10:45:54;5.90;;;1.83;;
53245;SDS011;39569;51.090;-1.786;2022-07-29T10:48:23;2.95;;;1.52;;
53245;SDS011;39569;51.090;-1.786;2022-07-29T10:50:54;6.28;;;1.50;;
53245;SDS011;39569;51.090;-1.786;2022-07-29T10:53:23;1.58;;;1.48;;
53245;SDS011;39569;51.090;-1.786;2022-07-29T10:55:51;2.92;;;1.80;;
53245;SDS011;39569;51.090;-1.786;2022-07-29T10:58:18;2.00;;;1.48;;
53245;SDS011;39569;51.090;-1.786;2022-07-29T11:00:49;7.25;;;2.22;;
53245;SDS011;39569;51.090;-1.786;2022-07-29T11:06:08;3.58;;;1.50;;
53245;SDS011;39569;51.090;-1.786;2022-07-29T11:08:35;3.58;;;1.70;;
53245;SDS011;39569;51.090;-1.786;2022-07-29T11:19:28;2.15;;;1.65;;
53245;SDS011;39569;51.090;-1.786;2022-07-29T11:21:55;14.40;;;1.45;;
53245;SDS011;39569;51.090;-1.786;2022-07-29T11:24:24;8.18;;;1.92;;
53245;SDS011;39569;51.090;-1.786;2022-07-29T11:27:06;2.45;;;2.05;;
53245;SDS011;39569;51.090;-1.786;2022-07-29T11:29:38;1.17;;;1.08;;
53245;SDS011;39569;51.090;-1.786;2022-07-29T11:32:12;2.97;;;2.05;;
53245;SDS011;39569;51.090;-1.786;2022-07-29T11:34:42;2.08;;;1.60;;
53245;SDS011;39569;51.090;-1.786;2022-07-29T11:37:16;1.77;;;1.60;;
53245;SDS011;39569;51.090;-1.786;2022-07-29T11:39:45;1.65;;;1.55;;
53245;SDS011;39569;51.090;-1.786;2022-07-29T11:45:12;2.50;;;1.65;;
53245;SDS011;39569;51.090;-1.786;2022-07-29T11:47:48;1.98;;;1.77;;
53245;SDS011;39569;51.090;-1.786;2022-07-29T11:50:26;3.63;;;1.17;;
53245;SDS011;39569;51.090;-1.786;2022-07-29T11:52:56;3.13;;;1.80;;
53245;SDS011;39569;51.090;-1.786;2022-07-29T11:55:23;3.13;;;1.25;;
53245;SDS011;39569;51.090;-1.786;2022-07-29T11:57:51;2.33;;;2.13;;
53245;SDS011;39569;51.090;-1.786;2022-07-29T12:00:23;4.07;;;1.65;;
53245;SDS011;39569;51.090;-1.786;2022-07-29T12:02:54;1.85;;;1.75;;
53245;SDS011;39569;51.090;-1.786;2022-07-29T12:05:29;1.52;;;1.10;;
53245;SDS011;39569;51.090;-1.786;2022-07-29T12:08:03;2.25;;;1.65;;
53245;SDS011;39569;51.090;-1.786;2022-07-29T12:10:31;1.35;;;1.27;;
53245;SDS011;39569;51.090;-1.786;2022-07-29T12:12:58;1.33;;;1.23;;
53245;SDS011;39569;51.090;-1.786;2022-07-29T12:15:25;2.10;;;1.60;;
53245;SDS011;39569;51.090;-1.786;2022-07-29T12:17:53;3.65;;;1.70;;
53245;SDS011;39569;51.090;-1.786;2022-07-29T12:20:23;4.60;;;1.55;;
53245;SDS011;39569;51.090;-1.786;2022-07-29T12:22:51;1.50;;;1.40;;
53245;SDS011;39569;51.090;-1.786;2022-07-29T12:25:19;3.88;;;1.50;;
53245;SDS011;39569;51.090;-1.786;2022-07-29T12:27:47;4.75;;;2.25;;
53245;SDS011;39569;51.090;-1.786;2022-07-29T12:30:34;4.10;;;1.75;;
53245;SDS011;39569;51.090;-1.786;2022-07-29T12:33:16;1.35;;;1.25;;
53245;SDS011;39569;51.090;-1.786;2022-07-29T12:35:48;2.38;;;2.20;;
53245;SDS011;39569;51.090;-1.786;2022-07-29T12:38:16;3.15;;;2.15;;
53245;SDS011;39569;51.090;-1.786;2022-07-29T12:40:44;2.17;;;1.52;;
53245;SDS011;39569;51.090;-1.786;2022-07-29T12:43:13;4.68;;;1.85;;
53245;SDS011;39569;51.090;-1.786;2022-07-29T12:45:41;18.73;;;1.70;;
53245;SDS011;39569;51.090;-1.786;2022-07-29T12:48:10;1.75;;;1.60;;
53245;SDS011;39569;51.090;-1.786;2022-07-29T12:50:52;3.35;;;1.52;;
53245;SDS011;39569;51.090;-1.786;2022-07-29T12:53:22;1.90;;;1.77;;
53245;SDS011;39569;51.090;-1.786;2022-07-29T12:55:50;2.28;;;1.30;;
53245;SDS011;39569;51.090;-1.786;2022-07-29T12:58:28;2.38;;;1.85;;
53245;SDS011;39569;51.090;-1.786;2022-07-29T13:01:03;7.90;;;1.38;;
53245;SDS011;39569;51.090;-1.786;2022-07-29T13:03:45;3.90;;;1.90;;
53245;SDS011;39569;51.090;-1.786;2022-07-29T13:06:31;3.35;;;1.63;;
53245;SDS011;39569;51.090;-1.786;2022-07-29T13:09:03;2.30;;;1.95;;
53245;SDS011;39569;51.090;-1.786;2022-07-29T13:11:32;1.98;;;1.88;;
53245;SDS011;39569;51.090;-1.786;2022-07-29T13:14:00;2.40;;;1.48;;
53245;SDS011;39569;51.090;-1.786;2022-07-29T13:16:27;3.17;;;2.13;;
53245;SDS011;39569;51.090;-1.786;2022-07-29T13:19:04;1.35;;;1.05;;
53245;SDS011;39569;51.090;-1.786;2022-07-29T13:21:33;8.73;;;1.58;;
53245;SDS011;39569;51.090;-1.786;2022-07-29T13:24:00;1.95;;;1.58;;
53245;SDS011;39569;51.090;-1.786;2022-07-29T13:26:27;2.75;;;1.70;;
53245;SDS011;39569;51.090;-1.786;2022-07-29T13:28:54;3.08;;;1.70;;
53245;SDS011;39569;51.090;-1.786;2022-07-29T13:31:20;3.92;;;2.20;;
53245;SDS011;39569;51.090;-1.786;2022-07-29T13:33:47;2.20;;;1.60;;
53245;SDS011;39569;51.090;-1.786;2022-07-29T13:36:14;14.07;;;2.28;;
53245;SDS011;39569;51.090;-1.786;2022-07-29T13:38:42;3.42;;;2.22;;
53245;SDS011;39569;51.090;-1.786;2022-07-29T13:41:09;2.30;;;1.70;;
53245;SDS011;39569;51.090;-1.786;2022-07-29T13:43:36;3.30;;;1.58;;
53245;SDS011;39569;51.090;-1.786;2022-07-29T13:46:03;3.95;;;1.30;;
53245;SDS011;39569;51.090;-1.786;2022-07-29T13:48:29;6.55;;;1.70;;
53245;SDS011;39569;51.090;-1.786;2022-07-29T13:50:56;6.80;;;2.50;;
53245;SDS011;39569;51.090;-1.786;2022-07-29T13:53:23;9.60;;;1.45;;
53245;SDS011;39569;51.090;-1.786;2022-07-29T13:55:51;1.65;;;1.35;;
53245;SDS011;39569;51.090;-1.786;2022-07-29T13:58:18;2.33;;;1.40;;
53245;SDS011;39569;51.090;-1.786;2022-07-29T14:00:44;9.10;;;2.23;;
53245;SDS011;39569;51.090;-1.786;2022-07-29T14:03:11;1.48;;;1.17;;
53245;SDS011;39569;51.090;-1.786;2022-07-29T14:05:38;1.30;;;1.20;;
53245;SDS011;39569;51.090;-1.786;2022-07-29T14:08:05;1.73;;;1.45;;
53245;SDS011;39569;51.090;-1.786;2022-07-29T14:10:32;2.60;;;1.73;;
53245;SDS011;39569;51.090;-1.786;2022-07-29T14:13:00;2.30;;;1.70;;
53245;SDS011;39569;51.090;-1.786;2022-07-29T14:15:27;1.10;;;1.10;;
53245;SDS011;39569;51.090;-1.786;2022-07-29T14:17:53;3.45;;;1.70;;
53245;SDS011;39569;51.090;-1.786;2022-07-29T14:20:20;4.35;;;2.13;;
53245;SDS011;39569;51.090;-1.786;2022-07-29T14:22:47;2.75;;;1.50;;
53245;SDS011;39569;51.090;-1.786;2022-07-29T14:25:14;2.58;;;1.85;;
53245;SDS011;39569;51.090;-1.786;2022-07-29T14:27:40;3.80;;;2.15;;
53245;SDS011;39569;51.090;-1.786;2022-07-29T14:30:09;5.40;;;1.75;;
53245;SDS011;39569;51.090;-1.786;2022-07-29T14:32:37;2.30;;;1.73;;
53245;SDS011;39569;51.090;-1.786;2022-07-29T14:35:04;3.90;;;1.42;;
53245;SDS011;39569;51.090;-1.786;2022-07-29T14:37:31;1.75;;;1.55;;
53245;SDS011;39569;51.090;-1.786;2022-07-29T14:39:59;7.15;;;1.98;;
53245;SDS011;39569;51.090;-1.786;2022-07-29T14:42:28;2.45;;;1.77;;
53245;SDS011;39569;51.090;-1.786;2022-07-29T14:44:56;1.55;;;1.45;;
53245;SDS011;39569;51.090;-1.786;2022-07-29T14:47:24;9.50;;;1.95;;
53245;SDS011;39569;51.090;-1.786;2022-07-29T14:49:51;7.10;;;2.03;;
53245;SDS011;39569;51.090;-1.786;2022-07-29T14:52:17;10.68;;;2.55;;
53245;SDS011;39569;51.090;-1.786;2022-07-29T14:54:44;4.03;;;1.95;;
53245;SDS011;39569;51.090;-1.786;2022-07-29T14:57:11;3.92;;;2.80;;
53245;SDS011;39569;51.090;-1.786;2022-07-29T14:59:38;6.22;;;2.38;;
53245;SDS011;39569;51.090;-1.786;2022-07-29T15:02:04;5.93;;;2.37;;